createdAt,value
2023-01-05T00:00:07.772Z,0
2023-01-05T00:03:07.504Z,0
2023-01-05T00:06:07.417Z,0
2023-01-05T00:09:07.554Z,0
2023-01-05T00:12:07.544Z,0
2023-01-05T00:15:07.518Z,0
2023-01-05T00:18:07.448Z,0
2023-01-05T00:21:07.418Z,0
2023-01-05T00:24:07.568Z,0
2023-01-05T00:27:07.494Z,0
2023-01-05T00:30:07.823Z,0
2023-01-05T00:33:07.427Z,0
2023-01-05T00:36:07.402Z,0
2023-01-05T00:39:07.413Z,0
2023-01-05T00:42:07.344Z,0
2023-01-05T00:45:07.463Z,0
2023-01-05T00:48:07.782Z,0
2023-01-05T00:51:07.474Z,0
2023-01-05T00:54:07.413Z,0
2023-01-05T00:57:07.537Z,0
2023-01-05T01:00:07.543Z,0
2023-01-05T01:03:07.808Z,0
2023-01-05T01:06:07.394Z,0
2023-01-05T01:09:07.536Z,0
2023-01-05T01:12:07.470Z,0
2023-01-05T01:15:07.543Z,0
2023-01-05T01:18:07.578Z,0
2023-01-05T01:21:07.468Z,0
2023-01-05T01:24:07.494Z,0
2023-01-05T01:27:07.473Z,0
2023-01-05T01:30:07.538Z,0
2023-01-05T01:33:07.557Z,0
2023-01-05T01:36:07.474Z,0
2023-01-05T01:39:07.494Z,0
2023-01-05T01:42:07.442Z,0
2023-01-05T01:45:07.585Z,0
2023-01-05T01:48:07.497Z,0
2023-01-05T01:51:14.911Z,0
2023-01-05T01:54:07.521Z,0
2023-01-05T01:57:07.488Z,0
2023-01-05T02:00:07.640Z,0
2023-01-05T02:03:07.509Z,0
2023-01-05T02:06:07.526Z,0
2023-01-05T02:09:07.636Z,0
2023-01-05T02:12:07.434Z,0
2023-01-05T02:15:07.432Z,0
2023-01-05T02:18:07.414Z,0
2023-01-05T02:21:11.668Z,0
2023-01-05T02:24:07.504Z,0
2023-01-05T02:27:07.482Z,0
2023-01-05T02:30:07.464Z,0
2023-01-05T02:33:07.442Z,0
2023-01-05T02:36:07.502Z,0
2023-01-05T02:39:07.453Z,0
2023-01-05T02:42:07.510Z,0
2023-01-05T02:45:07.535Z,0
2023-01-05T02:48:07.525Z,0
2023-01-05T02:51:07.522Z,0
2023-01-05T02:54:07.521Z,0
2023-01-05T02:57:07.471Z,0
2023-01-05T03:00:07.612Z,0
2023-01-05T03:03:08.317Z,0
2023-01-05T03:06:07.508Z,0
2023-01-05T03:09:07.457Z,0
2023-01-05T03:12:07.461Z,0
2023-01-05T03:15:07.525Z,0
2023-01-05T03:18:07.595Z,0
2023-01-05T03:21:07.476Z,0
2023-01-05T03:24:07.545Z,0
2023-01-05T03:27:07.461Z,0
2023-01-05T03:30:07.614Z,0
2023-01-05T03:33:07.431Z,0
2023-01-05T03:36:07.519Z,0
2023-01-05T03:39:07.409Z,0
2023-01-05T03:42:07.626Z,0
2023-01-05T03:45:07.447Z,0
2023-01-05T03:48:07.499Z,0
2023-01-05T03:51:07.504Z,0
2023-01-05T03:54:07.534Z,0
2023-01-05T03:57:07.439Z,0
2023-01-05T04:00:07.508Z,0
2023-01-05T04:03:08.578Z,0
2023-01-05T04:06:07.399Z,0
2023-01-05T04:09:07.456Z,0
2023-01-05T04:12:07.502Z,0
2023-01-05T04:15:07.390Z,0
2023-01-05T04:18:07.416Z,0
2023-01-05T04:21:07.448Z,0
2023-01-05T04:24:07.468Z,0
2023-01-05T04:27:07.468Z,0
2023-01-05T04:30:07.539Z,0
2023-01-05T04:33:07.429Z,0
2023-01-05T04:36:07.485Z,0
2023-01-05T04:39:07.468Z,0
2023-01-05T04:42:07.514Z,0
2023-01-05T04:45:07.465Z,0
2023-01-05T04:48:07.497Z,0
2023-01-05T04:51:07.505Z,0
2023-01-05T04:54:07.560Z,0
2023-01-05T04:57:07.521Z,0
2023-01-05T05:00:07.666Z,0
2023-01-05T05:03:08.357Z,0
2023-01-05T05:06:07.519Z,0
2023-01-05T05:09:07.454Z,0
2023-01-05T05:12:07.538Z,0
2023-01-05T05:15:07.528Z,0
2023-01-05T05:18:15.977Z,0
2023-01-05T05:21:07.446Z,0
2023-01-05T05:24:07.428Z,0
2023-01-05T05:27:07.424Z,0
2023-01-05T05:30:07.590Z,0
2023-01-05T05:33:07.479Z,0
2023-01-05T05:36:07.557Z,0
2023-01-05T05:39:07.488Z,0
2023-01-05T05:42:07.440Z,0
2023-01-05T05:45:07.456Z,0
2023-01-05T05:48:07.670Z,0
2023-01-05T05:51:07.548Z,0
2023-01-05T05:54:07.499Z,0
2023-01-05T05:57:07.545Z,0
2023-01-05T06:00:07.694Z,0
2023-01-05T06:03:08.168Z,0
2023-01-05T06:06:07.516Z,0
2023-01-05T06:09:07.475Z,0
2023-01-05T06:12:07.840Z,0
2023-01-05T06:15:07.484Z,0
2023-01-05T06:18:07.485Z,0
2023-01-05T06:21:08.910Z,0
2023-01-05T06:24:07.536Z,0
2023-01-05T06:27:07.561Z,0
2023-01-05T06:30:07.613Z,0
2023-01-05T06:33:07.466Z,0
2023-01-05T06:36:07.496Z,0
2023-01-05T06:39:07.574Z,0
2023-01-05T06:42:07.450Z,0
2023-01-05T06:45:07.458Z,0
2023-01-05T06:48:07.525Z,0
2023-01-05T06:51:07.454Z,3
2023-01-05T06:54:07.441Z,3
2023-01-05T06:57:07.460Z,3
2023-01-05T07:00:07.585Z,7
2023-01-05T07:03:07.557Z,20
2023-01-05T07:06:14.680Z,23
2023-01-05T07:09:07.442Z,37
2023-01-05T07:12:07.408Z,43
2023-01-05T07:15:07.400Z,53
2023-01-05T07:18:07.450Z,80
2023-01-05T07:21:07.444Z,120
2023-01-05T07:24:07.370Z,117
2023-01-05T07:27:16.449Z,137
2023-01-05T07:30:07.468Z,270
2023-01-05T07:33:07.506Z,233
2023-01-05T07:36:07.534Z,357
2023-01-05T07:39:07.510Z,610
2023-01-05T07:42:07.501Z,750
2023-01-05T07:45:07.592Z,653
2023-01-05T07:48:07.512Z,853
2023-01-05T07:51:07.482Z,853
2023-01-05T07:54:07.539Z,993
2023-01-05T07:57:07.567Z,1080
2023-01-05T08:00:07.686Z,1443
2023-01-05T08:03:07.498Z,1903
2023-01-05T08:06:07.509Z,2177
2023-01-05T08:09:07.503Z,1960
2023-01-05T08:12:07.569Z,2557
2023-01-05T08:15:07.566Z,2697
2023-01-05T08:18:07.445Z,2457
2023-01-05T08:21:07.583Z,2793
2023-01-05T08:24:07.479Z,2853
2023-01-05T08:27:08.003Z,2613
2023-01-05T08:30:07.546Z,2167
2023-01-05T08:33:07.514Z,1637
2023-01-05T08:36:07.534Z,3160
2023-01-05T08:39:07.436Z,3243
2023-01-05T08:42:09.798Z,3140
2023-01-05T08:45:07.499Z,3360
2023-01-05T08:48:07.498Z,3670
2023-01-05T08:51:07.520Z,2810
2023-01-05T08:54:07.483Z,3347
2023-01-05T08:57:07.454Z,4107
2023-01-05T09:00:07.661Z,6223
2023-01-05T09:03:08.349Z,4850
2023-01-05T09:06:07.487Z,3623
2023-01-05T09:09:07.467Z,5723
2023-01-05T09:12:07.556Z,3150
2023-01-05T09:15:07.478Z,5680
2023-01-05T09:18:07.715Z,7567
2023-01-05T09:21:07.448Z,4267
2023-01-05T09:24:07.489Z,3660
2023-01-05T09:27:07.484Z,1453
2023-01-05T09:30:07.603Z,3413
2023-01-05T09:33:07.545Z,4277
2023-01-05T09:36:07.519Z,3053
2023-01-05T09:39:07.504Z,4060
2023-01-05T09:42:07.532Z,5930
2023-01-05T09:45:07.580Z,5953
2023-01-05T09:48:07.600Z,5833
2023-01-05T09:51:07.440Z,7797
2023-01-05T09:54:07.487Z,6080
2023-01-05T09:57:17.730Z,3557
2023-01-05T10:00:07.604Z,7990
2023-01-05T10:03:07.771Z,7190
2023-01-05T10:06:07.514Z,8580
2023-01-05T10:09:07.529Z,5297
2023-01-05T10:12:07.524Z,4363
2023-01-05T10:15:07.516Z,3797
2023-01-05T10:18:07.466Z,3763
2023-01-05T10:21:07.492Z,3917
2023-01-05T10:24:07.505Z,3897
2023-01-05T10:27:33.231Z,4080
2023-01-05T10:30:07.597Z,6090
2023-01-05T10:33:57.999Z,6520
2023-01-05T10:36:49.127Z,4520
2023-01-05T10:39:07.577Z,5910
2023-01-05T10:42:07.595Z,7523
2023-01-05T10:45:07.543Z,4057
2023-01-05T10:48:07.533Z,5963
2023-01-05T10:51:07.575Z,6907
2023-01-05T10:54:07.495Z,6017
2023-01-05T10:57:07.513Z,6270
2023-01-05T11:00:07.978Z,6820
2023-01-05T11:03:07.588Z,5213
2023-01-05T11:06:07.495Z,8040
2023-01-05T11:09:07.522Z,6533
2023-01-05T11:12:07.495Z,4337
2023-01-05T11:15:07.530Z,3730
2023-01-05T11:18:07.502Z,4693
2023-01-05T11:21:07.515Z,6647
2023-01-05T11:24:07.424Z,4567
2023-01-05T11:27:07.455Z,6347
2023-01-05T11:30:07.775Z,7027
2023-01-05T11:33:10.077Z,4353
2023-01-05T11:36:07.493Z,4760
2023-01-05T11:39:07.574Z,5790
2023-01-05T11:42:07.505Z,7017
2023-01-05T11:45:07.561Z,7853
2023-01-05T11:48:07.482Z,8943
2023-01-05T11:51:07.540Z,7533
2023-01-05T11:54:07.445Z,8577
2023-01-05T11:57:07.504Z,7103
2023-01-05T12:00:07.578Z,7203
2023-01-05T12:03:07.984Z,4053
2023-01-05T12:06:07.479Z,2427
2023-01-05T12:09:07.917Z,3887
2023-01-05T12:12:07.534Z,2063
2023-01-05T12:15:07.493Z,1640
2023-01-05T12:18:07.509Z,2043
2023-01-05T12:21:07.498Z,2103
2023-01-05T12:24:07.489Z,3177
2023-01-05T12:27:07.487Z,4593
2023-01-05T12:36:07.548Z,3493
2023-01-05T12:39:07.630Z,2657
2023-01-05T12:42:11.934Z,3183
2023-01-05T12:45:07.496Z,2120
2023-01-05T12:48:07.530Z,2057
2023-01-05T12:51:07.496Z,2397
2023-01-05T12:54:08.392Z,2347
2023-01-05T12:57:07.449Z,2533
2023-01-05T13:00:07.597Z,1937
2023-01-05T13:03:07.844Z,1313
2023-01-05T13:06:07.452Z,1143
2023-01-05T13:09:07.550Z,2523
2023-01-05T13:12:07.492Z,2300
2023-01-05T13:15:07.534Z,2303
2023-01-05T13:18:07.503Z,1220
2023-01-05T13:21:15.377Z,1760
2023-01-05T13:24:07.572Z,1857
2023-01-05T13:27:07.602Z,1887
2023-01-05T13:30:07.563Z,1840
2023-01-05T13:33:07.457Z,1580
2023-01-05T13:36:07.439Z,1603
2023-01-05T13:39:07.538Z,3797
2023-01-05T13:42:07.476Z,2440
2023-01-05T13:45:07.460Z,2530
2023-01-05T13:51:07.472Z,1980
2023-01-05T13:54:07.829Z,1997
2023-01-05T13:57:07.484Z,1793
2023-01-05T14:00:17.106Z,1450
2023-01-05T14:03:07.526Z,2090
2023-01-05T14:06:07.501Z,1103
2023-01-05T14:09:07.581Z,1120
2023-01-05T14:12:07.771Z,1433
2023-01-05T14:15:07.979Z,2427
2023-01-05T14:18:07.554Z,1887
2023-01-05T14:21:07.588Z,1467
2023-01-05T14:24:07.508Z,833
2023-01-05T14:27:07.483Z,643
2023-01-05T14:30:07.541Z,750
2023-01-05T14:33:07.481Z,670
2023-01-05T14:36:07.539Z,733
2023-01-05T14:39:07.485Z,390
2023-01-05T14:42:07.547Z,873
2023-01-05T14:45:07.527Z,583
2023-01-05T14:48:07.608Z,760
2023-01-05T14:51:07.400Z,783
2023-01-05T14:54:07.494Z,553
2023-01-05T14:57:09.861Z,377
2023-01-05T15:00:07.525Z,310
2023-01-05T15:03:07.560Z,193
2023-01-05T15:06:07.528Z,193
2023-01-05T15:09:07.513Z,217
2023-01-05T15:12:08.114Z,187
2023-01-05T15:15:07.515Z,153
2023-01-05T15:18:07.597Z,80
2023-01-05T15:21:07.579Z,103
2023-01-05T15:24:07.515Z,83
2023-01-05T15:27:07.421Z,37
2023-01-05T15:30:07.565Z,30
2023-01-05T15:33:07.469Z,27
2023-01-05T15:36:07.523Z,17
2023-01-05T15:39:07.486Z,13
2023-01-05T15:42:07.561Z,7
2023-01-05T15:45:07.502Z,3
2023-01-05T15:48:09.607Z,3
2023-01-05T15:51:07.465Z,3
2023-01-05T15:54:07.759Z,0
2023-01-05T15:57:07.546Z,0
2023-01-05T16:00:07.540Z,0
2023-01-05T16:03:07.481Z,0
2023-01-05T16:06:07.529Z,0
2023-01-05T16:09:07.406Z,0
2023-01-05T16:12:07.674Z,0
2023-01-05T16:15:07.463Z,0
2023-01-05T16:18:07.485Z,0
2023-01-05T16:21:07.513Z,0
2023-01-05T16:24:07.421Z,0
2023-01-05T16:27:07.465Z,0
2023-01-05T16:30:07.498Z,0
2023-01-05T16:33:07.439Z,0
2023-01-05T16:36:07.454Z,0
2023-01-05T16:39:07.488Z,0
2023-01-05T16:42:07.457Z,0
2023-01-05T16:45:07.431Z,0
2023-01-05T16:48:07.547Z,0
2023-01-05T16:51:07.407Z,0
2023-01-05T16:54:07.440Z,0
2023-01-05T16:57:07.405Z,0
2023-01-05T17:00:07.609Z,0
2023-01-05T17:03:07.539Z,0
2023-01-05T17:06:07.432Z,0
2023-01-05T17:09:07.481Z,0
2023-01-05T17:12:07.465Z,0
2023-01-05T17:15:07.554Z,0
2023-01-05T17:18:07.471Z,0
2023-01-05T17:21:07.434Z,0
2023-01-05T17:24:07.501Z,0
2023-01-05T17:27:07.465Z,0
2023-01-05T17:30:07.551Z,0
2023-01-05T17:33:07.495Z,0
2023-01-05T17:36:07.501Z,0
2023-01-05T17:39:07.470Z,0
2023-01-05T17:42:07.444Z,0
2023-01-05T17:45:07.524Z,0
2023-01-05T17:48:07.500Z,0
2023-01-05T17:51:07.375Z,0
2023-01-05T17:54:07.502Z,0
2023-01-05T18:00:07.504Z,0
2023-01-05T18:03:07.450Z,0
2023-01-05T18:06:07.607Z,0
2023-01-05T18:09:07.544Z,0
2023-01-05T18:12:07.521Z,0
2023-01-05T18:15:07.391Z,0
2023-01-05T18:18:07.655Z,0
2023-01-05T18:21:07.489Z,0
2023-01-05T18:24:07.468Z,0
2023-01-05T18:27:07.410Z,0
2023-01-05T18:30:07.607Z,0
2023-01-05T18:33:07.492Z,0
2023-01-05T18:39:07.501Z,0
2023-01-05T18:42:07.463Z,0
2023-01-05T18:45:41.443Z,0
2023-01-05T18:48:07.454Z,0
2023-01-05T18:51:07.476Z,0
2023-01-05T18:54:07.461Z,0
2023-01-05T18:57:07.761Z,0
2023-01-05T19:00:07.430Z,0
2023-01-05T19:03:07.513Z,0
2023-01-05T19:06:07.477Z,0
2023-01-05T19:09:07.467Z,0
2023-01-05T19:12:07.505Z,0
2023-01-05T19:15:07.515Z,0
2023-01-05T19:18:07.671Z,0
2023-01-05T19:21:07.468Z,0
2023-01-05T19:24:07.458Z,0
2023-01-05T19:27:07.430Z,0
2023-01-05T19:30:07.457Z,0
2023-01-05T19:33:07.541Z,0
2023-01-05T19:36:07.432Z,0
2023-01-05T19:39:07.441Z,0
2023-01-05T19:42:07.493Z,0
2023-01-05T19:45:07.413Z,0
2023-01-05T19:48:07.445Z,0
2023-01-05T19:51:07.440Z,0
2023-01-05T19:54:07.460Z,0
2023-01-05T19:57:07.424Z,0
2023-01-05T20:00:07.657Z,0
2023-01-05T20:03:07.835Z,0
2023-01-05T20:06:07.488Z,0
2023-01-05T20:09:07.647Z,0
2023-01-05T20:12:21.967Z,0
2023-01-05T20:15:07.440Z,0
2023-01-05T20:18:07.466Z,0
2023-01-05T20:21:07.451Z,0
2023-01-05T20:24:07.495Z,0
2023-01-05T20:27:07.461Z,0
2023-01-05T20:30:07.525Z,0
2023-01-05T20:33:07.493Z,0
2023-01-05T20:36:07.492Z,0
2023-01-05T20:39:07.453Z,0
2023-01-05T20:42:07.485Z,0
2023-01-05T20:45:07.454Z,0
2023-01-05T20:48:07.412Z,0
2023-01-05T20:51:07.501Z,0
2023-01-05T20:54:07.454Z,0
2023-01-05T20:57:07.449Z,0
2023-01-05T21:00:07.519Z,0
2023-01-05T21:03:07.838Z,0
2023-01-05T21:06:07.459Z,0
2023-01-05T21:09:07.545Z,0
2023-01-05T21:12:07.403Z,0
2023-01-05T21:15:07.537Z,0
2023-01-05T21:18:07.472Z,0
2023-01-05T21:21:07.520Z,0
2023-01-05T21:24:07.469Z,0
2023-01-05T21:27:07.467Z,0
2023-01-05T21:30:07.492Z,0
2023-01-05T21:33:07.417Z,0
2023-01-05T21:36:07.644Z,0
2023-01-05T21:39:10.956Z,0
2023-01-05T21:42:07.746Z,0
2023-01-05T21:45:07.607Z,0
2023-01-05T21:48:07.421Z,0
2023-01-05T21:51:07.414Z,0
2023-01-05T21:54:10.132Z,0
2023-01-05T21:57:07.639Z,0
2023-01-05T22:00:07.522Z,0
2023-01-05T22:03:07.594Z,0
2023-01-05T22:06:07.448Z,0
2023-01-05T22:09:07.443Z,0
2023-01-05T22:12:07.515Z,0
2023-01-05T22:15:07.546Z,0
2023-01-05T22:18:07.464Z,0
2023-01-05T22:21:07.451Z,0
2023-01-05T22:24:07.567Z,0
2023-01-05T22:27:07.464Z,0
2023-01-05T22:30:07.570Z,0
2023-01-05T22:33:07.459Z,0
2023-01-05T22:36:07.403Z,0
2023-01-05T22:39:07.651Z,0
2023-01-05T22:42:07.474Z,0
2023-01-05T22:45:07.522Z,0
2023-01-05T22:48:07.487Z,0
2023-01-05T22:51:08.162Z,0
2023-01-05T22:54:07.487Z,0
2023-01-05T22:57:07.508Z,0
2023-01-05T23:00:08.313Z,0
2023-01-05T23:03:07.515Z,0
2023-01-05T23:06:07.469Z,0
2023-01-05T23:09:07.523Z,0
2023-01-05T23:12:07.441Z,0
2023-01-05T23:15:07.476Z,0
2023-01-05T23:18:07.449Z,0
2023-01-05T23:21:09.461Z,0
2023-01-05T23:24:07.455Z,0
2023-01-05T23:27:07.454Z,0
2023-01-05T23:30:07.454Z,0
2023-01-05T23:33:07.473Z,0
2023-01-05T23:36:07.444Z,0
2023-01-05T23:39:07.431Z,0
2023-01-05T23:42:07.463Z,0
2023-01-05T23:45:07.440Z,0
2023-01-05T23:48:07.468Z,0
2023-01-05T23:51:07.459Z,0
2023-01-05T23:54:07.489Z,0
2023-01-05T23:57:07.453Z,0
